createdAt,value
2022-07-26T00:02:09.795Z,18.22
2022-07-26T00:04:38.318Z,18.18
2022-07-26T00:07:08.633Z,18.13
2022-07-26T00:09:36.903Z,18.09
2022-07-26T00:12:05.697Z,18.07
2022-07-26T00:14:34.078Z,18.02
2022-07-26T00:17:06.570Z,17.97
2022-07-26T00:19:34.877Z,17.93
2022-07-26T00:22:22.027Z,17.88
2022-07-26T00:24:50.351Z,17.87
2022-07-26T00:27:18.646Z,17.87
2022-07-26T00:29:47.048Z,17.85
2022-07-26T00:32:15.451Z,17.84
2022-07-26T00:34:43.861Z,17.84
2022-07-26T00:37:14.982Z,17.84
2022-07-26T00:39:45.729Z,17.83
2022-07-26T00:42:14.180Z,17.83
2022-07-26T00:44:45.291Z,17.82
2022-07-26T00:47:14.908Z,17.82
2022-07-26T00:49:43.880Z,17.81
2022-07-26T00:52:12.564Z,17.81
2022-07-26T00:54:45.582Z,17.80
2022-07-26T00:57:15.039Z,17.80
2022-07-26T00:59:43.549Z,17.79
2022-07-26T01:02:12.058Z,17.81
2022-07-26T01:04:44.253Z,17.80
2022-07-26T01:07:15.990Z,17.80
2022-07-26T01:09:45.040Z,17.80
2022-07-26T01:12:14.409Z,17.79
2022-07-26T01:14:44.913Z,17.78
2022-07-26T01:17:14.315Z,17.78
2022-07-26T01:19:43.006Z,17.77
2022-07-26T01:22:14.580Z,17.76
2022-07-26T01:24:43.369Z,17.76
2022-07-26T01:27:12.309Z,17.76
2022-07-26T01:29:40.758Z,17.74
2022-07-26T01:32:09.620Z,17.73
2022-07-26T01:34:37.999Z,17.72
2022-07-26T01:37:07.639Z,17.72
2022-07-26T01:39:36.158Z,17.71
2022-07-26T01:42:05.003Z,17.70
2022-07-26T01:44:33.584Z,17.70
2022-07-26T01:47:01.858Z,17.68
2022-07-26T01:49:30.332Z,17.68
2022-07-26T01:51:59.033Z,17.68
2022-07-26T01:54:27.470Z,17.68
2022-07-26T01:56:56.052Z,17.66
2022-07-26T01:59:24.468Z,17.67
2022-07-26T02:01:52.949Z,17.67
2022-07-26T02:04:39.783Z,17.65
2022-07-26T02:07:12.886Z,17.62
2022-07-26T02:09:41.703Z,17.59
2022-07-26T02:12:10.137Z,17.57
2022-07-26T02:14:38.566Z,17.56
2022-07-26T02:17:07.516Z,17.56
2022-07-26T02:19:37.078Z,17.53
2022-07-26T02:22:05.848Z,17.49
2022-07-26T02:24:34.500Z,17.48
2022-07-26T02:27:04.547Z,17.48
2022-07-26T02:29:33.251Z,17.46
2022-07-26T02:32:01.816Z,17.42
2022-07-26T02:34:33.770Z,17.40
2022-07-26T02:37:03.341Z,17.38
2022-07-26T02:39:31.911Z,17.38
2022-07-26T02:42:02.220Z,17.37
2022-07-26T02:44:30.712Z,17.35
2022-07-26T02:46:59.393Z,17.32
2022-07-26T02:49:27.861Z,17.29
2022-07-26T02:51:56.294Z,17.28
2022-07-26T02:54:24.603Z,17.29
2022-07-26T02:56:53.025Z,17.30
2022-07-26T02:59:21.465Z,17.27
2022-07-26T03:01:49.938Z,17.26
2022-07-26T03:04:18.501Z,17.24
2022-07-26T03:06:47.228Z,17.23
2022-07-26T03:09:16.065Z,17.20
2022-07-26T03:11:44.403Z,17.18
2022-07-26T03:14:12.902Z,17.18
2022-07-26T03:16:43.675Z,17.14
2022-07-26T03:19:12.055Z,17.13
2022-07-26T03:21:40.388Z,17.08
2022-07-26T03:24:10.441Z,17.04
2022-07-26T03:26:38.871Z,16.98
2022-07-26T03:29:07.528Z,16.95
2022-07-26T03:31:37.070Z,16.91
2022-07-26T03:34:11.025Z,16.87
2022-07-26T03:36:39.927Z,16.85
2022-07-26T03:39:08.836Z,16.83
2022-07-26T03:41:37.153Z,16.82
2022-07-26T03:44:06.412Z,16.80
2022-07-26T03:46:35.220Z,16.79
2022-07-26T03:49:03.887Z,16.79
2022-07-26T03:51:37.044Z,16.78
2022-07-26T03:54:05.981Z,16.77
2022-07-26T03:56:34.778Z,16.75
2022-07-26T03:59:06.679Z,16.74
2022-07-26T04:01:36.528Z,16.75
2022-07-26T04:04:05.695Z,16.77
2022-07-26T04:06:37.671Z,16.77
2022-07-26T04:09:07.972Z,16.76
2022-07-26T04:11:36.797Z,16.75
2022-07-26T04:14:05.824Z,16.74
2022-07-26T04:16:36.212Z,16.75
2022-07-26T04:19:07.453Z,16.76
2022-07-26T04:21:35.784Z,16.74
2022-07-26T04:24:04.416Z,16.73
2022-07-26T04:26:32.955Z,16.73
2022-07-26T04:29:01.262Z,16.71
2022-07-26T04:31:29.616Z,16.73
2022-07-26T04:34:05.694Z,16.75
2022-07-26T04:36:34.371Z,16.78
2022-07-26T04:39:02.854Z,16.80
2022-07-26T04:41:31.176Z,16.83
2022-07-26T04:43:59.547Z,16.86
2022-07-26T04:46:28.075Z,16.86
2022-07-26T04:48:56.498Z,16.86
2022-07-26T04:51:25.780Z,16.85
2022-07-26T04:53:54.198Z,16.83
2022-07-26T04:56:22.601Z,16.75
2022-07-26T04:58:50.927Z,16.69
2022-07-26T05:01:19.263Z,16.66
2022-07-26T05:03:48.239Z,16.64
2022-07-26T05:06:16.586Z,16.64
2022-07-26T05:08:45.703Z,16.65
2022-07-26T05:11:14.213Z,16.67
2022-07-26T05:13:42.620Z,16.66
2022-07-26T05:16:11.794Z,16.66
2022-07-26T05:18:45.973Z,16.69
2022-07-26T05:21:18.811Z,16.71
2022-07-26T05:23:47.264Z,16.72
2022-07-26T05:26:15.711Z,16.70
2022-07-26T05:28:44.435Z,16.69
2022-07-26T05:31:12.996Z,16.73
2022-07-26T05:33:41.626Z,16.75
2022-07-26T05:36:10.136Z,16.74
2022-07-26T05:38:39.207Z,16.73
2022-07-26T05:41:07.772Z,16.66
2022-07-26T05:43:41.080Z,16.61
2022-07-26T05:46:11.644Z,16.57
2022-07-26T05:48:40.503Z,16.58
2022-07-26T05:51:11.264Z,16.56
2022-07-26T05:53:39.577Z,16.54
2022-07-26T05:56:08.036Z,16.54
2022-07-26T05:58:37.363Z,16.55
2022-07-26T06:01:07.295Z,16.54
2022-07-26T06:03:35.985Z,16.52
2022-07-26T06:06:07.171Z,16.53
2022-07-26T06:08:36.503Z,16.52
2022-07-26T06:11:05.826Z,16.53
2022-07-26T06:13:34.538Z,16.51
2022-07-26T06:16:03.118Z,16.52
2022-07-26T06:18:31.484Z,16.55
2022-07-26T06:21:02.129Z,16.58
2022-07-26T06:23:34.084Z,16.62
2022-07-26T06:26:06.279Z,16.62
2022-07-26T06:28:34.762Z,16.65
2022-07-26T06:31:03.300Z,16.68
2022-07-26T06:33:31.842Z,16.73
2022-07-26T06:36:00.692Z,16.75
2022-07-26T06:38:29.306Z,16.80
2022-07-26T06:40:58.074Z,16.89
2022-07-26T06:43:26.486Z,16.99
2022-07-26T06:45:54.981Z,17.15
2022-07-26T06:48:23.711Z,17.30
2022-07-26T06:50:52.111Z,17.38
2022-07-26T06:53:20.686Z,17.40
2022-07-26T06:55:49.234Z,17.41
2022-07-26T06:58:17.730Z,17.39
2022-07-26T07:00:46.193Z,17.38
2022-07-26T07:03:14.618Z,17.36
2022-07-26T07:05:47.941Z,17.34
2022-07-26T07:08:18.379Z,17.39
2022-07-26T07:10:47.493Z,17.43
2022-07-26T07:13:19.962Z,17.46
2022-07-26T07:15:51.314Z,17.47
2022-07-26T07:18:20.014Z,17.47
2022-07-26T07:20:48.736Z,17.48
2022-07-26T07:23:17.114Z,17.50
2022-07-26T07:25:45.551Z,17.56
2022-07-26T07:28:17.420Z,17.61
2022-07-26T07:30:47.675Z,17.69
2022-07-26T07:33:22.488Z,17.75
2022-07-26T07:35:52.312Z,17.75
2022-07-26T07:38:22.376Z,17.67
2022-07-26T07:40:51.250Z,17.63
2022-07-26T07:43:19.780Z,17.56
2022-07-26T07:45:48.588Z,17.54
2022-07-26T07:48:17.675Z,17.58
2022-07-26T07:50:46.653Z,17.68
2022-07-26T07:53:15.150Z,17.82
2022-07-26T07:55:44.042Z,17.97
2022-07-26T07:58:19.124Z,18.06
2022-07-26T08:00:48.169Z,18.10
2022-07-26T08:03:17.905Z,18.10
2022-07-26T08:05:49.768Z,18.22
2022-07-26T08:08:22.496Z,18.27
2022-07-26T08:10:52.919Z,18.30
2022-07-26T08:13:23.062Z,18.31
2022-07-26T08:15:53.358Z,18.31
2022-07-26T08:18:23.436Z,18.26
2022-07-26T08:20:53.957Z,18.23
2022-07-26T08:23:22.870Z,18.19
2022-07-26T08:26:03.298Z,18.12
2022-07-26T08:28:47.281Z,18.07
2022-07-26T08:31:17.271Z,18.01
2022-07-26T08:33:46.852Z,18.04
2022-07-26T08:36:16.736Z,18.14
2022-07-26T08:38:47.731Z,18.22
2022-07-26T08:41:18.025Z,18.30
2022-07-26T08:43:51.822Z,18.47
2022-07-26T08:46:26.028Z,18.62
2022-07-26T08:48:57.783Z,18.68
2022-07-26T08:51:27.298Z,18.67
2022-07-26T08:54:04.772Z,18.63
2022-07-26T08:56:36.638Z,18.58
2022-07-26T08:59:20.964Z,18.55
2022-07-26T09:02:02.586Z,18.56
2022-07-26T09:04:43.819Z,18.57
2022-07-26T09:07:18.591Z,18.61
2022-07-26T09:10:05.317Z,18.65
2022-07-26T09:12:34.582Z,18.66
2022-07-26T09:15:06.952Z,18.64
2022-07-26T09:17:41.563Z,18.66
2022-07-26T09:20:11.518Z,18.71
2022-07-26T09:23:10.482Z,18.77
2022-07-26T09:25:41.330Z,18.85
2022-07-26T09:28:23.522Z,18.87
2022-07-26T09:31:04.111Z,18.84
2022-07-26T09:33:47.084Z,18.80
2022-07-26T09:36:16.821Z,18.78
2022-07-26T09:38:47.950Z,18.80
2022-07-26T09:41:20.575Z,18.83
2022-07-26T09:43:53.885Z,18.84
2022-07-26T09:46:26.406Z,18.84
2022-07-26T09:49:12.315Z,18.76
2022-07-26T09:51:43.376Z,18.72
2022-07-26T09:54:17.338Z,18.66
2022-07-26T09:56:48.367Z,18.59
2022-07-26T09:59:22.457Z,18.49
2022-07-26T10:01:53.197Z,18.44
2022-07-26T10:04:22.456Z,18.42
2022-07-26T10:06:51.370Z,18.41
2022-07-26T10:09:20.127Z,18.40
2022-07-26T10:12:00.138Z,18.43
2022-07-26T10:14:46.288Z,18.41
2022-07-26T10:17:31.036Z,18.38
2022-07-26T10:20:03.083Z,18.40
2022-07-26T10:22:34.214Z,18.38
2022-07-26T10:25:18.007Z,18.39
2022-07-26T10:27:57.851Z,18.41
2022-07-26T10:30:34.909Z,18.46
2022-07-26T10:33:13.616Z,18.54
2022-07-26T10:35:43.725Z,18.60
2022-07-26T10:38:22.661Z,18.68
2022-07-26T10:41:07.715Z,18.81
2022-07-26T10:43:41.015Z,18.92
2022-07-26T10:46:13.623Z,19.08
2022-07-26T10:49:04.098Z,19.24
2022-07-26T10:51:36.256Z,19.29
2022-07-26T10:54:11.291Z,19.25
2022-07-26T10:56:40.886Z,19.17
2022-07-26T10:59:09.516Z,19.13
2022-07-26T11:01:41.585Z,19.21
2022-07-26T11:04:19.887Z,19.26
2022-07-26T11:06:48.722Z,19.32
2022-07-26T11:09:20.779Z,19.30
2022-07-26T11:11:56.811Z,19.29
2022-07-26T11:14:29.312Z,19.28
2022-07-26T11:16:58.328Z,19.40
2022-07-26T11:19:27.581Z,19.66
2022-07-26T11:22:00.958Z,19.91
2022-07-26T11:24:29.558Z,20.00
2022-07-26T11:27:06.614Z,20.04
2022-07-26T11:29:39.000Z,20.03
2022-07-26T11:32:22.142Z,19.98
2022-07-26T11:35:01.443Z,20.00
2022-07-26T11:37:30.231Z,19.95
2022-07-26T11:39:58.649Z,19.93
2022-07-26T11:42:27.391Z,19.85
2022-07-26T11:44:56.146Z,19.79
2022-07-26T11:47:26.391Z,19.76
2022-07-26T11:52:45.393Z,19.70
2022-07-26T11:55:14.122Z,19.76
2022-07-26T11:57:42.554Z,19.91
2022-07-26T12:00:12.308Z,19.97
2022-07-26T12:02:42.381Z,20.19
2022-07-26T12:05:22.193Z,20.17
2022-07-26T12:07:53.752Z,20.05
2022-07-26T12:10:22.338Z,19.91
2022-07-26T12:12:50.854Z,19.91
2022-07-26T12:15:19.360Z,19.94
2022-07-26T12:18:00.719Z,19.88
2022-07-26T12:20:29.123Z,19.74
2022-07-26T12:23:06.094Z,19.64
2022-07-26T12:25:37.421Z,19.59
2022-07-26T12:28:13.723Z,19.66
2022-07-26T12:30:42.063Z,19.59
2022-07-26T12:33:11.022Z,19.53
2022-07-26T12:35:42.952Z,19.45
2022-07-26T12:38:13.618Z,19.59
2022-07-26T12:40:43.118Z,19.75
2022-07-26T12:43:12.300Z,19.72
2022-07-26T12:45:40.877Z,19.68
2022-07-26T12:48:12.802Z,19.82
2022-07-26T12:50:41.131Z,20.08
2022-07-26T12:53:11.367Z,20.09
2022-07-26T12:55:41.653Z,19.93
2022-07-26T12:58:10.289Z,19.83
2022-07-26T13:00:38.842Z,19.74
2022-07-26T13:03:07.999Z,19.75
2022-07-26T13:05:36.968Z,19.79
2022-07-26T13:08:07.973Z,19.89
2022-07-26T13:10:36.921Z,19.97
2022-07-26T13:13:05.637Z,19.95
2022-07-26T13:15:36.068Z,20.00
2022-07-26T13:18:08.038Z,20.05
2022-07-26T13:20:38.607Z,20.01
2022-07-26T13:23:13.873Z,20.06
2022-07-26T13:25:48.468Z,20.08
2022-07-26T13:28:17.561Z,20.06
2022-07-26T13:30:47.042Z,20.05
2022-07-26T13:33:17.988Z,19.99
2022-07-26T13:35:46.364Z,19.91
2022-07-26T13:38:21.521Z,19.82
2022-07-26T13:40:50.852Z,19.68
2022-07-26T13:43:22.428Z,19.57
2022-07-26T13:45:51.131Z,19.46
2022-07-26T13:48:19.938Z,19.41
2022-07-26T13:50:49.121Z,19.38
2022-07-26T13:53:17.894Z,19.43
2022-07-26T13:55:46.455Z,19.59
2022-07-26T13:58:14.809Z,19.76
2022-07-26T14:00:43.155Z,19.94
2022-07-26T14:03:11.825Z,20.13
2022-07-26T14:05:43.328Z,20.34
2022-07-26T14:08:11.972Z,20.39
2022-07-26T14:10:43.899Z,20.33
2022-07-26T14:13:12.657Z,20.33
2022-07-26T14:15:41.201Z,20.50
2022-07-26T14:18:10.097Z,20.64
2022-07-26T14:20:38.611Z,20.58
2022-07-26T14:23:07.103Z,20.48
2022-07-26T14:25:35.543Z,20.44
2022-07-26T14:28:04.550Z,20.34
2022-07-26T14:30:33.019Z,20.29
2022-07-26T14:33:01.613Z,20.23
2022-07-26T14:35:30.128Z,20.16
2022-07-26T14:37:58.442Z,20.17
2022-07-26T14:40:26.990Z,20.18
2022-07-26T14:42:55.512Z,20.11
2022-07-26T14:45:23.935Z,20.01
2022-07-26T14:47:52.334Z,19.90
2022-07-26T14:50:26.003Z,19.81
2022-07-26T14:52:55.208Z,19.73
2022-07-26T14:55:26.589Z,19.71
2022-07-26T14:57:55.033Z,19.75
2022-07-26T15:00:23.475Z,19.70
2022-07-26T15:02:51.854Z,19.63
2022-07-26T15:05:20.331Z,19.47
2022-07-26T15:07:49.395Z,19.46
2022-07-26T15:10:17.836Z,19.46
2022-07-26T15:12:46.301Z,19.46
2022-07-26T15:15:14.718Z,19.45
2022-07-26T15:17:43.719Z,19.37
2022-07-26T15:20:12.696Z,19.27
2022-07-26T15:22:41.082Z,19.26
2022-07-26T15:25:09.696Z,19.29
2022-07-26T15:27:38.305Z,19.18
2022-07-26T15:30:11.645Z,19.07
2022-07-26T15:32:42.782Z,18.98
2022-07-26T15:35:14.228Z,18.87
2022-07-26T15:37:48.056Z,18.80
2022-07-26T15:40:16.763Z,18.78
2022-07-26T15:42:45.699Z,18.77
2022-07-26T15:45:14.752Z,18.79
2022-07-26T15:48:11.335Z,18.74
2022-07-26T15:50:33.898Z,18.73
2022-07-26T15:53:04.983Z,18.70
2022-07-26T15:55:34.466Z,18.66
2022-07-26T15:58:03.042Z,18.66
2022-07-26T16:00:31.598Z,18.73
2022-07-26T16:03:00.425Z,18.79
2022-07-26T16:05:29.034Z,18.75
2022-07-26T16:07:57.399Z,18.76
2022-07-26T16:10:25.778Z,18.70
2022-07-26T16:12:54.194Z,18.61
2022-07-26T16:15:22.585Z,18.46
2022-07-26T16:17:50.900Z,18.27
2022-07-26T16:20:20.375Z,18.16
2022-07-26T16:22:48.788Z,18.09
2022-07-26T16:25:17.212Z,18.04
2022-07-26T16:27:47.186Z,18.06
2022-07-26T16:30:15.825Z,18.12
2022-07-26T16:32:44.300Z,18.19
2022-07-26T16:35:12.956Z,18.20
2022-07-26T16:37:42.218Z,18.19
2022-07-26T16:40:19.852Z,18.19
2022-07-26T16:42:48.394Z,18.21
2022-07-26T16:45:16.825Z,18.23
2022-07-26T16:47:45.394Z,18.19
2022-07-26T16:50:13.790Z,18.16
2022-07-26T16:52:56.007Z,18.15
2022-07-26T16:55:24.618Z,18.14
2022-07-26T16:57:53.115Z,18.11
2022-07-26T17:00:22.498Z,18.10
2022-07-26T17:02:52.742Z,18.14
2022-07-26T17:05:21.305Z,18.21
2022-07-26T17:07:49.640Z,18.26
2022-07-26T17:10:18.825Z,18.23
2022-07-26T17:12:47.262Z,18.17
2022-07-26T17:15:18.094Z,18.12
2022-07-26T17:17:48.876Z,18.08
2022-07-26T17:20:18.117Z,18.03
2022-07-26T17:22:46.587Z,17.92
2022-07-26T17:25:15.343Z,17.87
2022-07-26T17:27:43.863Z,17.82
2022-07-26T17:30:13.513Z,17.79
2022-07-26T17:32:42.197Z,17.74
2022-07-26T17:35:10.898Z,17.70
2022-07-26T17:37:40.040Z,17.68
2022-07-26T17:40:10.667Z,17.61
2022-07-26T17:42:40.150Z,17.56
2022-07-26T17:45:09.036Z,17.50
2022-07-26T17:47:37.454Z,17.46
2022-07-26T17:50:38.760Z,17.44
2022-07-26T17:52:57.187Z,17.41
2022-07-26T17:55:25.637Z,17.36
2022-07-26T17:57:54.418Z,17.26
2022-07-26T18:00:28.628Z,17.22
2022-07-26T18:02:58.005Z,17.17
2022-07-26T18:05:33.370Z,17.09
2022-07-26T18:08:03.710Z,17.01
2022-07-26T18:10:32.433Z,16.97
2022-07-26T18:13:00.912Z,16.93
2022-07-26T18:15:29.748Z,16.87
2022-07-26T18:17:58.179Z,16.83
2022-07-26T18:20:26.695Z,16.84
2022-07-26T18:22:55.554Z,16.83
2022-07-26T18:25:23.987Z,16.80
2022-07-26T18:27:53.870Z,16.74
2022-07-26T18:30:22.885Z,16.71
2022-07-26T18:32:52.957Z,16.73
2022-07-26T18:35:21.476Z,16.74
2022-07-26T18:37:52.949Z,16.75
2022-07-26T18:40:23.733Z,16.74
2022-07-26T18:42:52.665Z,16.74
2022-07-26T18:45:21.337Z,16.70
2022-07-26T18:47:50.172Z,16.66
2022-07-26T18:50:20.835Z,16.66
2022-07-26T18:52:50.728Z,16.69
2022-07-26T18:55:19.989Z,16.68
2022-07-26T18:57:48.526Z,16.69
2022-07-26T19:00:21.557Z,16.68
2022-07-26T19:02:52.156Z,16.68
2022-07-26T19:05:20.539Z,16.65
2022-07-26T19:07:50.355Z,16.62
2022-07-26T19:10:20.401Z,16.60
2022-07-26T19:12:49.442Z,16.57
2022-07-26T19:15:18.271Z,16.54
2022-07-26T19:17:46.738Z,16.50
2022-07-26T19:20:15.217Z,16.46
2022-07-26T19:22:44.983Z,16.42
2022-07-26T19:25:14.676Z,16.39
2022-07-26T19:27:44.017Z,16.35
2022-07-26T19:30:13.039Z,16.34
2022-07-26T19:32:44.631Z,16.30
2022-07-26T19:35:13.115Z,16.29
2022-07-26T19:37:41.637Z,16.31
2022-07-26T19:40:10.500Z,16.30
2022-07-26T19:42:39.072Z,16.28
2022-07-26T19:45:08.072Z,16.25
2022-07-26T19:47:38.694Z,16.25
2022-07-26T19:50:08.914Z,16.23
2022-07-26T19:52:40.458Z,16.20
2022-07-26T19:55:10.206Z,16.14
2022-07-26T19:57:38.826Z,16.09
2022-07-26T20:00:09.889Z,16.07
2022-07-26T20:02:41.971Z,16.04
2022-07-26T20:05:11.957Z,16.00
2022-07-26T20:07:40.696Z,15.95
2022-07-26T20:10:09.364Z,15.96
2022-07-26T20:12:38.970Z,15.94
2022-07-26T20:15:10.305Z,15.94
2022-07-26T20:17:39.964Z,15.90
2022-07-26T20:20:10.096Z,15.88
2022-07-26T20:22:38.698Z,15.89
2022-07-26T20:25:07.565Z,15.89
2022-07-26T20:27:36.583Z,15.88
2022-07-26T20:30:07.279Z,15.87
2022-07-26T20:32:35.665Z,15.84
2022-07-26T20:35:04.750Z,15.83
2022-07-26T20:37:33.132Z,15.83
2022-07-26T20:40:02.098Z,15.83
2022-07-26T20:42:30.649Z,15.80
2022-07-26T20:45:01.129Z,15.79
2022-07-26T20:47:29.873Z,15.77
2022-07-26T20:50:02.958Z,15.76
2022-07-26T20:52:32.103Z,15.74
2022-07-26T20:55:00.705Z,15.71
2022-07-26T20:57:29.246Z,15.69
2022-07-26T20:59:57.863Z,15.67
2022-07-26T21:02:26.651Z,15.67
2022-07-26T21:04:55.551Z,15.68
2022-07-26T21:07:24.297Z,15.71
2022-07-26T21:10:12.841Z,15.73
2022-07-26T21:12:41.747Z,15.72
2022-07-26T21:15:10.722Z,15.71
2022-07-26T21:17:39.765Z,15.69
2022-07-26T21:20:08.616Z,15.69
2022-07-26T21:22:36.967Z,15.69
2022-07-26T21:25:07.275Z,15.69
2022-07-26T21:27:35.731Z,15.67
2022-07-26T21:30:06.347Z,15.65
2022-07-26T21:32:35.018Z,15.62
2022-07-26T21:35:03.877Z,15.61
2022-07-26T21:37:34.081Z,15.60
2022-07-26T21:40:02.682Z,15.59
2022-07-26T21:42:31.149Z,15.54
2022-07-26T21:44:59.833Z,15.53
2022-07-26T21:47:32.116Z,15.50
2022-07-26T21:50:01.024Z,15.50
2022-07-26T21:52:29.514Z,15.50
2022-07-26T21:54:57.905Z,15.54
2022-07-26T21:57:26.294Z,15.55
2022-07-26T21:59:54.870Z,15.58
2022-07-26T22:02:23.709Z,15.59
2022-07-26T22:04:52.152Z,15.62
2022-07-26T22:07:20.642Z,15.62
2022-07-26T22:09:49.013Z,15.60
2022-07-26T22:12:17.367Z,15.59
2022-07-26T22:14:46.084Z,15.57
2022-07-26T22:17:14.782Z,15.57
2022-07-26T22:19:43.159Z,15.57
2022-07-26T22:22:11.668Z,15.59
2022-07-26T22:24:40.168Z,15.61
2022-07-26T22:27:08.553Z,15.62
2022-07-26T22:29:40.052Z,15.63
2022-07-26T22:32:08.819Z,15.62
2022-07-26T22:34:37.198Z,15.60
2022-07-26T22:37:05.601Z,15.59
2022-07-26T22:39:34.082Z,15.55
2022-07-26T22:42:15.416Z,15.50
2022-07-26T22:44:44.407Z,15.46
2022-07-26T22:47:12.756Z,15.41
2022-07-26T22:49:41.238Z,15.35
2022-07-26T22:52:11.566Z,15.30
2022-07-26T22:54:39.953Z,15.25
2022-07-26T22:57:14.491Z,15.18
2022-07-26T22:59:42.798Z,15.13
2022-07-26T23:02:11.149Z,15.09
2022-07-26T23:04:40.121Z,15.05
2022-07-26T23:07:09.016Z,15.02
2022-07-26T23:09:37.384Z,14.95
2022-07-26T23:12:06.732Z,14.91
2022-07-26T23:14:35.403Z,14.87
2022-07-26T23:17:04.109Z,14.82
2022-07-26T23:19:32.960Z,14.81
2022-07-26T23:22:01.273Z,14.79
2022-07-26T23:24:29.711Z,14.76
2022-07-26T23:26:58.236Z,14.72
2022-07-26T23:29:26.843Z,14.70
2022-07-26T23:31:55.224Z,14.67
2022-07-26T23:34:23.632Z,14.64
2022-07-26T23:36:52.218Z,14.61
2022-07-26T23:39:22.191Z,14.59
2022-07-26T23:41:50.530Z,14.55
2022-07-26T23:44:19.002Z,14.52
2022-07-26T23:46:47.344Z,14.50
2022-07-26T23:49:16.057Z,14.47
2022-07-26T23:51:44.753Z,14.48
2022-07-26T23:54:13.438Z,14.48
2022-07-26T23:56:42.003Z,14.48
2022-07-26T23:59:10.555Z,14.50
